sensor_id;sensor_type;location;lat;lon;timestamp;temperature;humidity
69598;SHT31;70000;51.176;-115.568;2024-03-25T00:00:24;5.92;42.03
69598;SHT31;70000;51.176;-115.568;2024-03-25T00:02:53;5.94;41.77
69598;SHT31;70000;51.176;-115.568;2024-03-25T00:05:23;5.96;41.57
69598;SHT31;70000;51.176;-115.568;2024-03-25T00:07:53;5.99;41.89
69598;SHT31;70000;51.176;-115.568;2024-03-25T00:10:22;5.98;41.68
69598;SHT31;70000;51.176;-115.568;2024-03-25T00:12:51;5.92;41.17
69598;SHT31;70000;51.176;-115.568;2024-03-25T00:15:21;5.88;41.45
69598;SHT31;70000;51.176;-115.568;2024-03-25T00:17:53;5.83;40.63
69598;SHT31;70000;51.176;-115.568;2024-03-25T00:20:22;5.75;40.99
69598;SHT31;70000;51.176;-115.568;2024-03-25T00:22:51;5.71;40.45
69598;SHT31;70000;51.176;-115.568;2024-03-25T00:25:20;5.69;40.48
69598;SHT31;70000;51.176;-115.568;2024-03-25T00:27:49;5.62;40.42
69598;SHT31;70000;51.176;-115.568;2024-03-25T00:30:18;5.56;40.81
69598;SHT31;70000;51.176;-115.568;2024-03-25T00:32:52;5.50;40.36
69598;SHT31;70000;51.176;-115.568;2024-03-25T00:35:21;5.43;39.58
69598;SHT31;70000;51.176;-115.568;2024-03-25T00:37:50;5.37;40.74
69598;SHT31;70000;51.176;-115.568;2024-03-25T00:40:19;5.31;40.67
69598;SHT31;70000;51.176;-115.568;2024-03-25T00:42:48;5.22;40.84
69598;SHT31;70000;51.176;-115.568;2024-03-25T00:45:17;5.14;40.81
69598;SHT31;70000;51.176;-115.568;2024-03-25T00:47:46;5.06;40.98
69598;SHT31;70000;51.176;-115.568;2024-03-25T00:50:15;4.99;41.13
69598;SHT31;70000;51.176;-115.568;2024-03-25T00:52:47;4.91;41.38
69598;SHT31;70000;51.176;-115.568;2024-03-25T00:55:22;4.81;41.83
69598;SHT31;70000;51.176;-115.568;2024-03-25T00:57:51;4.72;42.17
69598;SHT31;70000;51.176;-115.568;2024-03-25T01:00:20;4.55;42.06
69598;SHT31;70000;51.176;-115.568;2024-03-25T01:02:49;4.37;42.21
69598;SHT31;70000;51.176;-115.568;2024-03-25T01:05:18;4.21;42.53
69598;SHT31;70000;51.176;-115.568;2024-03-25T01:07:47;4.04;42.61
69598;SHT31;70000;51.176;-115.568;2024-03-25T01:10:16;3.85;43.16
69598;SHT31;70000;51.176;-115.568;2024-03-25T01:12:45;3.70;43.49
69598;SHT31;70000;51.176;-115.568;2024-03-25T01:15:13;3.52;43.43
69598;SHT31;70000;51.176;-115.568;2024-03-25T01:17:42;3.34;43.65
69598;SHT31;70000;51.176;-115.568;2024-03-25T01:20:12;3.19;44.09
69598;SHT31;70000;51.176;-115.568;2024-03-25T01:22:45;3.06;44.42
69598;SHT31;70000;51.176;-115.568;2024-03-25T01:25:13;2.93;45.11
69598;SHT31;70000;51.176;-115.568;2024-03-25T01:27:42;2.78;45.36
69598;SHT31;70000;51.176;-115.568;2024-03-25T01:30:11;2.63;46.11
69598;SHT31;70000;51.176;-115.568;2024-03-25T01:32:41;2.51;46.38
69598;SHT31;70000;51.176;-115.568;2024-03-25T01:35:10;2.43;46.85
69598;SHT31;70000;51.176;-115.568;2024-03-25T01:37:39;2.32;46.85
69598;SHT31;70000;51.176;-115.568;2024-03-25T01:40:08;2.16;47.16
69598;SHT31;70000;51.176;-115.568;2024-03-25T01:42:38;2.04;47.67
69598;SHT31;70000;51.176;-115.568;2024-03-25T01:45:11;1.89;47.80
69598;SHT31;70000;51.176;-115.568;2024-03-25T01:47:41;1.77;48.43
69598;SHT31;70000;51.176;-115.568;2024-03-25T01:50:10;1.62;48.74
69598;SHT31;70000;51.176;-115.568;2024-03-25T01:52:39;1.43;48.90
69598;SHT31;70000;51.176;-115.568;2024-03-25T01:55:08;1.24;49.29
69598;SHT31;70000;51.176;-115.568;2024-03-25T01:57:45;1.11;49.96
69598;SHT31;70000;51.176;-115.568;2024-03-25T02:00:15;0.98;50.55
69598;SHT31;70000;51.176;-115.568;2024-03-25T02:02:45;0.93;50.72
69598;SHT31;70000;51.176;-115.568;2024-03-25T02:05:15;0.85;50.90
69598;SHT31;70000;51.176;-115.568;2024-03-25T02:07:45;0.77;51.31
69598;SHT31;70000;51.176;-115.568;2024-03-25T02:10:16;0.64;51.26
69598;SHT31;70000;51.176;-115.568;2024-03-25T02:12:45;0.52;51.50
69598;SHT31;70000;51.176;-115.568;2024-03-25T02:15:15;0.46;51.87
69598;SHT31;70000;51.176;-115.568;2024-03-25T02:17:44;0.38;52.21
69598;SHT31;70000;51.176;-115.568;2024-03-25T02:23:12;0.27;52.75
69598;SHT31;70000;51.176;-115.568;2024-03-25T02:25:42;0.25;53.33
69598;SHT31;70000;51.176;-115.568;2024-03-25T02:28:11;0.18;53.37
69598;SHT31;70000;51.176;-115.568;2024-03-25T02:30:40;0.11;53.53
69598;SHT31;70000;51.176;-115.568;2024-03-25T02:33:10;0.04;53.77
69598;SHT31;70000;51.176;-115.568;2024-03-25T02:41:42;-0.21;54.60
69598;SHT31;70000;51.176;-115.568;2024-03-25T02:44:10;-0.24;54.67
69598;SHT31;70000;51.176;-115.568;2024-03-25T02:46:42;-0.27;54.89
69598;SHT31;70000;51.176;-115.568;2024-03-25T02:49:11;-0.32;55.22
69598;SHT31;70000;51.176;-115.568;2024-03-25T02:51:40;-0.37;55.44
69598;SHT31;70000;51.176;-115.568;2024-03-25T02:54:14;-0.45;55.42
69598;SHT31;70000;51.176;-115.568;2024-03-25T02:56:43;-0.54;55.57
69598;SHT31;70000;51.176;-115.568;2024-03-25T02:59:11;-0.61;55.69
69598;SHT31;70000;51.176;-115.568;2024-03-25T03:01:39;-0.66;56.33
69598;SHT31;70000;51.176;-115.568;2024-03-25T03:04:08;-0.70;56.34
69598;SHT31;70000;51.176;-115.568;2024-03-25T03:06:36;-0.71;56.54
69598;SHT31;70000;51.176;-115.568;2024-03-25T03:09:04;-0.73;56.39
69598;SHT31;70000;51.176;-115.568;2024-03-25T03:11:33;-0.78;56.53
69598;SHT31;70000;51.176;-115.568;2024-03-25T03:14:01;-0.79;56.83
69598;SHT31;70000;51.176;-115.568;2024-03-25T03:16:30;-0.83;56.90
69598;SHT31;70000;51.176;-115.568;2024-03-25T03:18:58;-0.88;56.99
69598;SHT31;70000;51.176;-115.568;2024-03-25T03:21:27;-0.95;56.97
69598;SHT31;70000;51.176;-115.568;2024-03-25T03:23:56;-0.98;57.17
69598;SHT31;70000;51.176;-115.568;2024-03-25T03:26:25;-1.01;57.38
69598;SHT31;70000;51.176;-115.568;2024-03-25T03:28:54;-1.07;57.33
69598;SHT31;70000;51.176;-115.568;2024-03-25T03:31:22;-1.11;57.51
69598;SHT31;70000;51.176;-115.568;2024-03-25T03:33:52;-1.18;57.22
69598;SHT31;70000;51.176;-115.568;2024-03-25T03:36:21;-1.29;57.17
69598;SHT31;70000;51.176;-115.568;2024-03-25T03:38:50;-1.35;57.48
69598;SHT31;70000;51.176;-115.568;2024-03-25T03:41:19;-1.43;57.53
69598;SHT31;70000;51.176;-115.568;2024-03-25T03:43:48;-1.48;57.81
69598;SHT31;70000;51.176;-115.568;2024-03-25T03:46:16;-1.53;58.02
69598;SHT31;70000;51.176;-115.568;2024-03-25T03:48:44;-1.57;58.32
69598;SHT31;70000;51.176;-115.568;2024-03-25T03:51:12;-1.64;58.33
69598;SHT31;70000;51.176;-115.568;2024-03-25T03:53:41;-1.74;58.39
69598;SHT31;70000;51.176;-115.568;2024-03-25T03:56:09;-1.78;58.96
69598;SHT31;70000;51.176;-115.568;2024-03-25T03:58:38;-1.80;58.82
69598;SHT31;70000;51.176;-115.568;2024-03-25T04:01:13;-1.84;58.74
69598;SHT31;70000;51.176;-115.568;2024-03-25T04:03:45;-1.87;58.84
69598;SHT31;70000;51.176;-115.568;2024-03-25T04:06:14;-1.93;58.88
69598;SHT31;70000;51.176;-115.568;2024-03-25T04:08:42;-1.93;59.24
69598;SHT31;70000;51.176;-115.568;2024-03-25T04:11:11;-1.92;59.41
69598;SHT31;70000;51.176;-115.568;2024-03-25T04:13:39;-1.95;59.24
69598;SHT31;70000;51.176;-115.568;2024-03-25T04:16:07;-2.00;59.30
69598;SHT31;70000;51.176;-115.568;2024-03-25T04:18:36;-2.03;59.12
69598;SHT31;70000;51.176;-115.568;2024-03-25T04:21:28;-2.10;59.28
69598;SHT31;70000;51.176;-115.568;2024-03-25T04:23:57;-2.15;59.22
69598;SHT31;70000;51.176;-115.568;2024-03-25T04:26:26;-2.16;59.58
69598;SHT31;70000;51.176;-115.568;2024-03-25T04:28:55;-2.17;59.62
69598;SHT31;70000;51.176;-115.568;2024-03-25T04:31:24;-2.20;59.30
69598;SHT31;70000;51.176;-115.568;2024-03-25T04:33:57;-2.33;59.11
69598;SHT31;70000;51.176;-115.568;2024-03-25T04:36:28;-2.45;59.09
69598;SHT31;70000;51.176;-115.568;2024-03-25T04:38:58;-2.57;59.08
69598;SHT31;70000;51.176;-115.568;2024-03-25T04:41:26;-2.62;59.47
69598;SHT31;70000;51.176;-115.568;2024-03-25T04:43:55;-2.68;59.10
69598;SHT31;70000;51.176;-115.568;2024-03-25T04:46:24;-2.77;59.40
69598;SHT31;70000;51.176;-115.568;2024-03-25T04:48:52;-2.85;59.39
69598;SHT31;70000;51.176;-115.568;2024-03-25T04:51:22;-2.93;59.65
69598;SHT31;70000;51.176;-115.568;2024-03-25T04:53:55;-3.01;59.68
69598;SHT31;70000;51.176;-115.568;2024-03-25T04:56:24;-3.06;60.02
69598;SHT31;70000;51.176;-115.568;2024-03-25T04:58:52;-3.07;60.08
69598;SHT31;70000;51.176;-115.568;2024-03-25T05:01:21;-3.14;60.17
69598;SHT31;70000;51.176;-115.568;2024-03-25T05:03:53;-3.17;60.41
69598;SHT31;70000;51.176;-115.568;2024-03-25T05:06:37;-3.17;60.34
69598;SHT31;70000;51.176;-115.568;2024-03-25T05:09:34;-3.20;60.32
69598;SHT31;70000;51.176;-115.568;2024-03-25T05:12:11;-3.20;60.49
69598;SHT31;70000;51.176;-115.568;2024-03-25T05:14:43;-3.18;60.50
69598;SHT31;70000;51.176;-115.568;2024-03-25T05:17:15;-3.24;60.33
69598;SHT31;70000;51.176;-115.568;2024-03-25T05:19:44;-3.35;60.44
69598;SHT31;70000;51.176;-115.568;2024-03-25T05:22:13;-3.43;60.38
69598;SHT31;70000;51.176;-115.568;2024-03-25T05:24:44;-3.54;60.34
69598;SHT31;70000;51.176;-115.568;2024-03-25T05:27:13;-3.56;60.44
69598;SHT31;70000;51.176;-115.568;2024-03-25T05:29:45;-3.57;60.55
69598;SHT31;70000;51.176;-115.568;2024-03-25T05:32:14;-3.59;60.47
69598;SHT31;70000;51.176;-115.568;2024-03-25T05:34:51;-3.66;60.60
69598;SHT31;70000;51.176;-115.568;2024-03-25T05:37:20;-3.65;60.76
69598;SHT31;70000;51.176;-115.568;2024-03-25T05:39:49;-3.69;60.45
69598;SHT31;70000;51.176;-115.568;2024-03-25T05:42:18;-3.77;60.30
69598;SHT31;70000;51.176;-115.568;2024-03-25T05:44:51;-3.86;60.52
69598;SHT31;70000;51.176;-115.568;2024-03-25T05:47:19;-3.89;60.77
69598;SHT31;70000;51.176;-115.568;2024-03-25T05:49:48;-3.90;60.72
69598;SHT31;70000;51.176;-115.568;2024-03-25T05:52:17;-3.94;60.62
69598;SHT31;70000;51.176;-115.568;2024-03-25T05:54:46;-3.98;60.66
69598;SHT31;70000;51.176;-115.568;2024-03-25T05:57:15;-4.01;60.66
69598;SHT31;70000;51.176;-115.568;2024-03-25T05:59:44;-4.04;60.57
69598;SHT31;70000;51.176;-115.568;2024-03-25T06:02:12;-4.10;60.34
69598;SHT31;70000;51.176;-115.568;2024-03-25T06:04:41;-4.13;60.27
69598;SHT31;70000;51.176;-115.568;2024-03-25T06:07:10;-4.16;60.27
69598;SHT31;70000;51.176;-115.568;2024-03-25T06:09:39;-4.21;60.22
69598;SHT31;70000;51.176;-115.568;2024-03-25T06:12:10;-4.24;60.38
69598;SHT31;70000;51.176;-115.568;2024-03-25T06:14:43;-4.26;60.33
69598;SHT31;70000;51.176;-115.568;2024-03-25T06:17:25;-4.32;60.17
69598;SHT31;70000;51.176;-115.568;2024-03-25T06:20:03;-4.37;60.03
69598;SHT31;70000;51.176;-115.568;2024-03-25T06:22:33;-4.45;59.69
69598;SHT31;70000;51.176;-115.568;2024-03-25T06:25:02;-4.51;59.78
69598;SHT31;70000;51.176;-115.568;2024-03-25T06:27:32;-4.54;59.88
69598;SHT31;70000;51.176;-115.568;2024-03-25T06:30:01;-4.54;59.85
69598;SHT31;70000;51.176;-115.568;2024-03-25T06:32:49;-4.57;59.70
69598;SHT31;70000;51.176;-115.568;2024-03-25T06:35:36;-4.63;59.56
69598;SHT31;70000;51.176;-115.568;2024-03-25T06:38:05;-4.66;59.75
69598;SHT31;70000;51.176;-115.568;2024-03-25T06:40:33;-4.70;59.61
69598;SHT31;70000;51.176;-115.568;2024-03-25T06:43:05;-4.76;59.83
69598;SHT31;70000;51.176;-115.568;2024-03-25T06:45:33;-4.78;59.94
69598;SHT31;70000;51.176;-115.568;2024-03-25T06:48:02;-4.82;60.02
69598;SHT31;70000;51.176;-115.568;2024-03-25T06:50:32;-4.83;60.04
69598;SHT31;70000;51.176;-115.568;2024-03-25T06:53:00;-4.86;60.05
69598;SHT31;70000;51.176;-115.568;2024-03-25T06:55:29;-4.89;60.13
69598;SHT31;70000;51.176;-115.568;2024-03-25T06:57:58;-4.93;60.21
69598;SHT31;70000;51.176;-115.568;2024-03-25T07:00:27;-4.96;60.28
69598;SHT31;70000;51.176;-115.568;2024-03-25T07:02:59;-4.99;60.45
69598;SHT31;70000;51.176;-115.568;2024-03-25T07:05:28;-5.00;60.61
69598;SHT31;70000;51.176;-115.568;2024-03-25T07:08:02;-5.01;60.62
69598;SHT31;70000;51.176;-115.568;2024-03-25T07:10:32;-5.05;60.59
69598;SHT31;70000;51.176;-115.568;2024-03-25T07:13:01;-5.09;60.67
69598;SHT31;70000;51.176;-115.568;2024-03-25T07:15:30;-5.14;60.59
69598;SHT31;70000;51.176;-115.568;2024-03-25T07:17:59;-5.17;60.65
69598;SHT31;70000;51.176;-115.568;2024-03-25T07:23:59;-5.25;61.17
69598;SHT31;70000;51.176;-115.568;2024-03-25T07:26:28;-5.23;61.38
69598;SHT31;70000;51.176;-115.568;2024-03-25T07:28:59;-5.21;61.30
69598;SHT31;70000;51.176;-115.568;2024-03-25T07:31:48;-5.23;61.04
69598;SHT31;70000;51.176;-115.568;2024-03-25T07:34:18;-5.27;61.04
69598;SHT31;70000;51.176;-115.568;2024-03-25T07:36:47;-5.30;61.10
69598;SHT31;70000;51.176;-115.568;2024-03-25T07:39:16;-5.33;61.17
69598;SHT31;70000;51.176;-115.568;2024-03-25T07:41:45;-5.36;61.09
69598;SHT31;70000;51.176;-115.568;2024-03-25T07:44:15;-5.41;61.03
69598;SHT31;70000;51.176;-115.568;2024-03-25T07:47:05;-5.43;61.19
69598;SHT31;70000;51.176;-115.568;2024-03-25T07:49:41;-5.42;61.19
69598;SHT31;70000;51.176;-115.568;2024-03-25T07:52:12;-5.50;61.02
69598;SHT31;70000;51.176;-115.568;2024-03-25T07:54:42;-5.61;61.28
69598;SHT31;70000;51.176;-115.568;2024-03-25T07:57:12;-5.66;61.44
69598;SHT31;70000;51.176;-115.568;2024-03-25T07:59:44;-5.68;61.57
69598;SHT31;70000;51.176;-115.568;2024-03-25T08:02:13;-5.70;61.72
69598;SHT31;70000;51.176;-115.568;2024-03-25T08:05:22;-5.70;61.91
69598;SHT31;70000;51.176;-115.568;2024-03-25T08:07:51;-5.70;61.92
69598;SHT31;70000;51.176;-115.568;2024-03-25T08:10:19;-5.72;61.87
69598;SHT31;70000;51.176;-115.568;2024-03-25T08:12:47;-5.74;61.97
69598;SHT31;70000;51.176;-115.568;2024-03-25T08:15:16;-5.82;62.07
69598;SHT31;70000;51.176;-115.568;2024-03-25T08:17:44;-5.85;62.44
69598;SHT31;70000;51.176;-115.568;2024-03-25T08:20:17;-5.86;62.41
69598;SHT31;70000;51.176;-115.568;2024-03-25T08:22:45;-5.85;62.44
69598;SHT31;70000;51.176;-115.568;2024-03-25T08:25:16;-5.84;62.37
69598;SHT31;70000;51.176;-115.568;2024-03-25T08:27:44;-5.88;62.16
69598;SHT31;70000;51.176;-115.568;2024-03-25T08:30:12;-5.93;62.18
69598;SHT31;70000;51.176;-115.568;2024-03-25T08:32:41;-5.97;62.31
69598;SHT31;70000;51.176;-115.568;2024-03-25T08:35:09;-5.99;62.44
69598;SHT31;70000;51.176;-115.568;2024-03-25T08:37:37;-5.99;62.51
69598;SHT31;70000;51.176;-115.568;2024-03-25T08:40:06;-5.99;62.36
69598;SHT31;70000;51.176;-115.568;2024-03-25T08:42:36;-6.00;62.35
69598;SHT31;70000;51.176;-115.568;2024-03-25T08:45:04;-6.03;62.28
69598;SHT31;70000;51.176;-115.568;2024-03-25T08:47:33;-6.05;62.40
69598;SHT31;70000;51.176;-115.568;2024-03-25T08:50:01;-6.03;62.50
69598;SHT31;70000;51.176;-115.568;2024-03-25T08:52:30;-6.06;62.58
69598;SHT31;70000;51.176;-115.568;2024-03-25T08:55:01;-6.16;62.63
69598;SHT31;70000;51.176;-115.568;2024-03-25T08:57:29;-6.24;62.71
69598;SHT31;70000;51.176;-115.568;2024-03-25T08:59:58;-6.21;63.07
69598;SHT31;70000;51.176;-115.568;2024-03-25T09:02:26;-6.21;62.98
69598;SHT31;70000;51.176;-115.568;2024-03-25T09:04:55;-6.22;63.07
69598;SHT31;70000;51.176;-115.568;2024-03-25T09:07:26;-6.20;62.91
69598;SHT31;70000;51.176;-115.568;2024-03-25T09:09:54;-6.20;62.80
69598;SHT31;70000;51.176;-115.568;2024-03-25T09:12:41;-6.27;62.81
69598;SHT31;70000;51.176;-115.568;2024-03-25T09:15:10;-6.33;62.91
69598;SHT31;70000;51.176;-115.568;2024-03-25T09:17:38;-6.35;63.14
69598;SHT31;70000;51.176;-115.568;2024-03-25T09:20:07;-6.29;63.20
69598;SHT31;70000;51.176;-115.568;2024-03-25T09:22:43;-6.28;62.98
69598;SHT31;70000;51.176;-115.568;2024-03-25T09:25:12;-6.37;62.54
69598;SHT31;70000;51.176;-115.568;2024-03-25T09:27:48;-6.42;62.71
69598;SHT31;70000;51.176;-115.568;2024-03-25T09:30:17;-6.41;63.11
69598;SHT31;70000;51.176;-115.568;2024-03-25T09:32:46;-6.41;63.20
69598;SHT31;70000;51.176;-115.568;2024-03-25T09:35:14;-6.44;63.30
69598;SHT31;70000;51.176;-115.568;2024-03-25T09:37:43;-6.40;63.41
69598;SHT31;70000;51.176;-115.568;2024-03-25T09:40:14;-6.40;63.27
69598;SHT31;70000;51.176;-115.568;2024-03-25T09:42:49;-6.41;63.27
69598;SHT31;70000;51.176;-115.568;2024-03-25T09:45:29;-6.42;63.10
69598;SHT31;70000;51.176;-115.568;2024-03-25T09:47:59;-6.44;62.95
69598;SHT31;70000;51.176;-115.568;2024-03-25T09:50:28;-6.45;62.80
69598;SHT31;70000;51.176;-115.568;2024-03-25T09:52:58;-6.47;62.73
69598;SHT31;70000;51.176;-115.568;2024-03-25T09:55:26;-6.56;62.54
69598;SHT31;70000;51.176;-115.568;2024-03-25T09:57:55;-6.72;62.72
69598;SHT31;70000;51.176;-115.568;2024-03-25T10:00:25;-6.73;62.99
69598;SHT31;70000;51.176;-115.568;2024-03-25T10:02:54;-6.68;63.29
69598;SHT31;70000;51.176;-115.568;2024-03-25T10:05:22;-6.62;63.27
69598;SHT31;70000;51.176;-115.568;2024-03-25T10:07:50;-6.61;63.06
69598;SHT31;70000;51.176;-115.568;2024-03-25T10:10:19;-6.61;63.01
69598;SHT31;70000;51.176;-115.568;2024-03-25T10:12:48;-6.63;62.90
69598;SHT31;70000;51.176;-115.568;2024-03-25T10:15:16;-6.66;62.86
69598;SHT31;70000;51.176;-115.568;2024-03-25T10:17:45;-6.75;62.91
69598;SHT31;70000;51.176;-115.568;2024-03-25T10:20:16;-6.80;63.25
69598;SHT31;70000;51.176;-115.568;2024-03-25T10:22:45;-6.80;63.43
69598;SHT31;70000;51.176;-115.568;2024-03-25T10:25:26;-6.81;63.30
69598;SHT31;70000;51.176;-115.568;2024-03-25T10:27:57;-6.83;63.27
69598;SHT31;70000;51.176;-115.568;2024-03-25T10:30:29;-6.86;63.36
69598;SHT31;70000;51.176;-115.568;2024-03-25T10:32:58;-6.85;63.54
69598;SHT31;70000;51.176;-115.568;2024-03-25T10:35:32;-6.84;63.60
69598;SHT31;70000;51.176;-115.568;2024-03-25T10:38:03;-6.85;63.53
69598;SHT31;70000;51.176;-115.568;2024-03-25T10:40:35;-6.86;63.59
69598;SHT31;70000;51.176;-115.568;2024-03-25T10:43:07;-6.87;63.57
69598;SHT31;70000;51.176;-115.568;2024-03-25T10:45:40;-6.87;63.63
69598;SHT31;70000;51.176;-115.568;2024-03-25T10:48:25;-6.92;63.61
69598;SHT31;70000;51.176;-115.568;2024-03-25T10:51:03;-6.96;63.78
69598;SHT31;70000;51.176;-115.568;2024-03-25T10:53:34;-6.96;63.79
69598;SHT31;70000;51.176;-115.568;2024-03-25T10:56:05;-7.02;63.68
69598;SHT31;70000;51.176;-115.568;2024-03-25T10:58:35;-7.07;63.87
69598;SHT31;70000;51.176;-115.568;2024-03-25T11:01:04;-7.08;63.63
69598;SHT31;70000;51.176;-115.568;2024-03-25T11:03:33;-7.14;63.42
69598;SHT31;70000;51.176;-115.568;2024-03-25T11:06:03;-7.24;63.41
69598;SHT31;70000;51.176;-115.568;2024-03-25T11:08:32;-7.35;63.49
69598;SHT31;70000;51.176;-115.568;2024-03-25T11:11:01;-7.34;63.76
69598;SHT31;70000;51.176;-115.568;2024-03-25T11:13:30;-7.38;63.58
69598;SHT31;70000;51.176;-115.568;2024-03-25T11:15:59;-7.36;63.80
69598;SHT31;70000;51.176;-115.568;2024-03-25T11:18:28;-7.33;63.77
69598;SHT31;70000;51.176;-115.568;2024-03-25T11:21:03;-7.33;63.87
69598;SHT31;70000;51.176;-115.568;2024-03-25T11:23:41;-7.31;63.95
69598;SHT31;70000;51.176;-115.568;2024-03-25T11:26:24;-7.28;63.99
69598;SHT31;70000;51.176;-115.568;2024-03-25T11:28:56;-7.25;63.84
69598;SHT31;70000;51.176;-115.568;2024-03-25T11:31:25;-7.27;63.75
69598;SHT31;70000;51.176;-115.568;2024-03-25T11:34:05;-7.25;63.82
69598;SHT31;70000;51.176;-115.568;2024-03-25T11:36:35;-7.29;63.75
69598;SHT31;70000;51.176;-115.568;2024-03-25T11:39:03;-7.33;63.82
69598;SHT31;70000;51.176;-115.568;2024-03-25T11:41:42;-7.35;63.89
69598;SHT31;70000;51.176;-115.568;2024-03-25T11:44:11;-7.43;64.00
69598;SHT31;70000;51.176;-115.568;2024-03-25T11:46:40;-7.45;64.02
69598;SHT31;70000;51.176;-115.568;2024-03-25T11:49:14;-7.44;64.04
69598;SHT31;70000;51.176;-115.568;2024-03-25T11:51:46;-7.45;63.94
69598;SHT31;70000;51.176;-115.568;2024-03-25T11:54:15;-7.43;64.08
69598;SHT31;70000;51.176;-115.568;2024-03-25T11:56:44;-7.43;63.89
69598;SHT31;70000;51.176;-115.568;2024-03-25T11:59:12;-7.47;63.76
69598;SHT31;70000;51.176;-115.568;2024-03-25T12:01:43;-7.51;63.68
69598;SHT31;70000;51.176;-115.568;2024-03-25T12:04:20;-7.47;63.84
69598;SHT31;70000;51.176;-115.568;2024-03-25T12:06:53;-7.51;63.68
69598;SHT31;70000;51.176;-115.568;2024-03-25T12:09:23;-7.53;63.89
69598;SHT31;70000;51.176;-115.568;2024-03-25T12:12:10;-7.51;63.79
69598;SHT31;70000;51.176;-115.568;2024-03-25T12:14:39;-7.54;63.84
69598;SHT31;70000;51.176;-115.568;2024-03-25T12:17:07;-7.53;63.94
69598;SHT31;70000;51.176;-115.568;2024-03-25T12:19:36;-7.52;64.00
69598;SHT31;70000;51.176;-115.568;2024-03-25T12:22:07;-7.51;63.89
69598;SHT31;70000;51.176;-115.568;2024-03-25T12:24:35;-7.52;63.86
69598;SHT31;70000;51.176;-115.568;2024-03-25T12:27:05;-7.51;63.82
69598;SHT31;70000;51.176;-115.568;2024-03-25T12:29:33;-7.56;63.69
69598;SHT31;70000;51.176;-115.568;2024-03-25T12:32:01;-7.62;63.85
69598;SHT31;70000;51.176;-115.568;2024-03-25T12:34:30;-7.59;63.98
69598;SHT31;70000;51.176;-115.568;2024-03-25T12:37:05;-7.59;63.87
69598;SHT31;70000;51.176;-115.568;2024-03-25T12:39:34;-7.61;63.87
69598;SHT31;70000;51.176;-115.568;2024-03-25T12:42:04;-7.60;63.71
69598;SHT31;70000;51.176;-115.568;2024-03-25T12:44:33;-7.67;63.48
69598;SHT31;70000;51.176;-115.568;2024-03-25T12:47:01;-7.70;63.53
69598;SHT31;70000;51.176;-115.568;2024-03-25T12:49:31;-7.75;63.92
69598;SHT31;70000;51.176;-115.568;2024-03-25T12:51:59;-7.72;64.08
69598;SHT31;70000;51.176;-115.568;2024-03-25T12:54:28;-7.74;63.69
69598;SHT31;70000;51.176;-115.568;2024-03-25T12:56:56;-7.81;63.77
69598;SHT31;70000;51.176;-115.568;2024-03-25T12:59:25;-7.77;64.12
69598;SHT31;70000;51.176;-115.568;2024-03-25T13:01:54;-7.73;64.11
69598;SHT31;70000;51.176;-115.568;2024-03-25T13:04:23;-7.69;64.19
69598;SHT31;70000;51.176;-115.568;2024-03-25T13:06:51;-7.66;64.09
69598;SHT31;70000;51.176;-115.568;2024-03-25T13:09:20;-7.64;64.03
69598;SHT31;70000;51.176;-115.568;2024-03-25T13:11:48;-7.64;64.04
69598;SHT31;70000;51.176;-115.568;2024-03-25T13:14:16;-7.64;64.01
69598;SHT31;70000;51.176;-115.568;2024-03-25T13:16:45;-7.65;64.00
69598;SHT31;70000;51.176;-115.568;2024-03-25T13:19:13;-7.69;63.88
69598;SHT31;70000;51.176;-115.568;2024-03-25T13:21:44;-7.73;63.99
69598;SHT31;70000;51.176;-115.568;2024-03-25T13:24:13;-7.71;64.12
69598;SHT31;70000;51.176;-115.568;2024-03-25T13:26:42;-7.75;63.82
69598;SHT31;70000;51.176;-115.568;2024-03-25T13:29:10;-7.86;63.42
69598;SHT31;70000;51.176;-115.568;2024-03-25T13:31:38;-7.89;63.55
69598;SHT31;70000;51.176;-115.568;2024-03-25T13:34:09;-7.97;63.37
69598;SHT31;70000;51.176;-115.568;2024-03-25T13:36:37;-8.05;63.49
69598;SHT31;70000;51.176;-115.568;2024-03-25T13:39:06;-8.11;63.60
69598;SHT31;70000;51.176;-115.568;2024-03-25T13:41:35;-8.11;63.84
69598;SHT31;70000;51.176;-115.568;2024-03-25T13:44:03;-8.08;63.90
69598;SHT31;70000;51.176;-115.568;2024-03-25T13:46:32;-8.10;63.78
69598;SHT31;70000;51.176;-115.568;2024-03-25T13:49:00;-8.07;64.11
69598;SHT31;70000;51.176;-115.568;2024-03-25T13:51:28;-8.05;63.92
69598;SHT31;70000;51.176;-115.568;2024-03-25T13:53:57;-8.07;63.55
69598;SHT31;70000;51.176;-115.568;2024-03-25T13:56:25;-8.11;63.54
69598;SHT31;70000;51.176;-115.568;2024-03-25T13:58:54;-8.09;63.84
69598;SHT31;70000;51.176;-115.568;2024-03-25T14:01:22;-8.06;63.73
69598;SHT31;70000;51.176;-115.568;2024-03-25T14:03:51;-8.06;63.65
69598;SHT31;70000;51.176;-115.568;2024-03-25T14:06:20;-8.10;63.62
69598;SHT31;70000;51.176;-115.568;2024-03-25T14:08:48;-8.08;63.90
69598;SHT31;70000;51.176;-115.568;2024-03-25T14:11:16;-8.03;63.96
69598;SHT31;70000;51.176;-115.568;2024-03-25T14:13:45;-7.99;63.87
69598;SHT31;70000;51.176;-115.568;2024-03-25T14:16:13;-7.96;63.83
69598;SHT31;70000;51.176;-115.568;2024-03-25T14:18:42;-7.94;63.85
69598;SHT31;70000;51.176;-115.568;2024-03-25T14:21:10;-7.91;63.89
69598;SHT31;70000;51.176;-115.568;2024-03-25T14:23:39;-7.88;64.04
69598;SHT31;70000;51.176;-115.568;2024-03-25T14:26:11;-7.84;64.06
69598;SHT31;70000;51.176;-115.568;2024-03-25T14:28:40;-7.79;64.12
69598;SHT31;70000;51.176;-115.568;2024-03-25T14:31:11;-7.78;63.65
69598;SHT31;70000;51.176;-115.568;2024-03-25T14:33:41;-7.72;63.70
69598;SHT31;70000;51.176;-115.568;2024-03-25T14:36:09;-7.70;63.66
69598;SHT31;70000;51.176;-115.568;2024-03-25T14:38:38;-7.68;63.52
69598;SHT31;70000;51.176;-115.568;2024-03-25T14:41:06;-7.71;63.04
69598;SHT31;70000;51.176;-115.568;2024-03-25T14:43:35;-7.69;63.22
69598;SHT31;70000;51.176;-115.568;2024-03-25T14:46:04;-7.64;63.26
69598;SHT31;70000;51.176;-115.568;2024-03-25T14:48:32;-7.64;63.20
69598;SHT31;70000;51.176;-115.568;2024-03-25T14:51:00;-7.61;63.19
69598;SHT31;70000;51.176;-115.568;2024-03-25T14:53:28;-7.57;63.30
69598;SHT31;70000;51.176;-115.568;2024-03-25T14:55:57;-7.52;63.25
69598;SHT31;70000;51.176;-115.568;2024-03-25T14:58:25;-7.45;63.39
69598;SHT31;70000;51.176;-115.568;2024-03-25T15:00:54;-7.41;63.44
69598;SHT31;70000;51.176;-115.568;2024-03-25T15:03:22;-7.40;63.44
69598;SHT31;70000;51.176;-115.568;2024-03-25T15:05:51;-7.36;63.60
69598;SHT31;70000;51.176;-115.568;2024-03-25T15:08:19;-7.28;63.51
69598;SHT31;70000;51.176;-115.568;2024-03-25T15:10:48;-7.22;63.29
69598;SHT31;70000;51.176;-115.568;2024-03-25T15:13:16;-7.20;63.03
69598;SHT31;70000;51.176;-115.568;2024-03-25T15:15:44;-7.19;62.79
69598;SHT31;70000;51.176;-115.568;2024-03-25T15:18:14;-7.14;62.92
69598;SHT31;70000;51.176;-115.568;2024-03-25T15:20:42;-7.09;62.79